Portada
METAR-TAF:

METAR-TAF

Aeropuertos :

Hail, Arabia Saudita

latitud: 27-26N, longitud: 041-41E, altitud: 1015 m

Observación

El informe se hizo hace 1 hora y 8 minutos, a las 11:00 UTC
Viento 6 kt del oeste-noroeste
Temperatura 21°C
Humedad 28%
Presión 1022 hPa
Visibilidad 10 km o más
sin nubes por debajo de 1500 m y sin presencia de cumulonimbus.

METAR: OEHL 271100Z 30006KT CAVOK 21/02 Q1022

Hora: 15:08 (12:08 UTC)

Pronóstico

El informe se hizo hace 1 hora y 8 minutos, a las 11:00 UTC
Pronóstico válido del 27 a las 12 UTC al 28 a las 18 UTC
Viento 10 kt del este-noreste
Visibilidad: 7000 m
Evolucionando progresivamente
del 27 a las 18 UTC al 27 a las 20 UTC
Viento 3 kt con dirección variable

TAF: OEHL 271100Z 2712/2818 07010KT 7000 NSC BECMG 2718/2720 VRB03KT

Observaciones y pronósticos meteorológicos de más de 4000 aeropuertos (mensajes METAR y TAF).

Los puntos amarillos y rojos representan las estaciones disponibles.

Ponga el ratón en el punto deseado para ver el nombre de la estación.

Haga clic para ver las observaciones y los pronósticos meteorológicos.

Para cambiar el mapa : haga clic en los botones verdes con una cruz de color negro para hacer un zoom, en el botón verde con un guión para alejar o en las flechas verdes para mapas adyacentes.


METAR-TAF: